Time;durP1;ratioP1;P1;durP2;ratioP2;P2;SDS_P1;SDS_P2;PMS_P1;PMS_P2;Temp;Humidity;BMP_temperature;BMP_pressure;BME280_temperature;BME280_humidity;BME280_pressure;Samples;Min_cycle;Max_cycle;Signal;HPM_P1;HPM_P2
2021/07/29 00:01:42;;;;;;;12.70;11.08;;;;;;;17.04;77.76;99952.40;2005917;88;30308;-65
2021/07/29 00:04:45;;;;;;;15.10;11.75;;;;;;;17.01;77.69;99957.58;2012557;87;27632;-65
2021/07/29 00:07:52;;;;;;;15.70;11.97;;;;;;;16.97;77.83;99957.46;2014414;88;28706;-64
2021/07/29 00:10:56;;;;;;;19.05;12.47;;;;;;;16.93;77.85;99958.19;2012523;88;31106;-66
2021/07/29 00:14:01;;;;;;;13.93;11.75;;;;;;;16.90;77.80;99948.08;2006245;88;33644;-65
2021/07/29 00:17:06;;;;;;;;;;;;;;;16.85;77.90;99941.23;2016900;88;29326;-65
2021/07/29 00:20:11;;;;;;;19.32;14.05;;;;;;;16.83;77.90;99944.55;2012918;87;27741;-65
2021/07/29 00:23:14;;;;;;;14.23;12.70;;;;;;;16.79;77.87;99950.34;2014232;88;28719;-65
2021/07/29 00:26:17;;;;;;;14.90;12.28;;;;;;;16.75;78.03;99947.00;2011911;88;31086;-65
2021/07/29 00:29:20;;;;;;;22.10;12.88;;;;;;;16.71;77.89;99955.02;2014170;88;33675;-65
2021/07/29 00:32:22;;;;;;;17.60;12.47;;;;;;;16.68;78.01;99948.50;1980533;89;30550;-64
2021/07/29 00:35:25;;;;;;;17.73;12.37;;;;;;;16.66;78.29;99941.84;2012683;88;27610;-65
2021/07/29 00:38:28;;;;;;;18.92;14.93;;;;;;;16.63;78.21;99939.89;2014369;88;29664;-66
2021/07/29 00:41:31;;;;;;;19.98;14.80;;;;;;;16.61;78.28;99941.86;2039729;84;31239;-67
2021/07/29 00:44:34;;;;;;;26.57;15.13;;;;;;;16.59;78.45;99944.70;2048938;86;33081;-66
2021/07/29 00:47:40;;;;;;;17.92;13.13;;;;;;;16.57;78.50;99948.02;2048655;86;30176;-66
2021/07/29 00:50:42;;;;;;;23.47;15.68;;;;;;;16.54;78.40;99952.31;2049184;86;27660;-66
2021/07/29 00:53:44;;;;;;;18.35;14.07;;;;;;;16.52;78.39;99961.91;2050636;86;29348;-67
2021/07/29 00:56:46;;;;;;;16.40;12.75;;;;;;;16.48;78.51;99950.97;2051167;86;31158;-66
2021/07/29 00:59:49;;;;;;;15.88;12.03;;;;;;;16.45;78.39;99945.80;2051245;86;33101;-66
2021/07/29 01:02:53;;;;;;;12.98;11.38;;;;;;;16.42;78.42;99952.80;2051690;86;29701;-67
2021/07/29 01:05:56;;;;;;;22.62;14.68;;;;;;;16.39;78.40;99958.44;2051573;86;28202;-66
2021/07/29 01:09:10;;;;;;;17.82;12.82;;;;;;;16.37;78.57;99955.87;2029181;86;28786;-66
2021/07/29 01:12:12;;;;;;;18.15;14.40;;;;;;;16.35;78.76;99956.48;2051558;86;32326;-66
2021/07/29 01:15:14;;;;;;;14.63;13.05;;;;;;;16.32;78.69;99958.08;2051549;86;33612;-66
2021/07/29 01:18:16;;;;;;;19.40;14.93;;;;;;;16.28;78.63;99955.27;2051290;86;29424;-65
2021/07/29 01:21:19;;;;;;;16.10;12.75;;;;;;;16.25;78.70;99954.16;2051168;86;27745;-67
2021/07/29 01:24:23;;;;;;;14.53;12.40;;;;;;;16.23;78.69;99944.80;2051113;86;28703;-66
2021/07/29 01:27:29;;;;;;;16.42;12.68;;;;;;;16.19;78.74;99941.99;2051537;86;31043;-64
2021/07/29 01:30:28;;;;;;;14.78;12.10;;;;;;;16.17;78.77;99948.00;2028778;85;32979;-65
2021/07/29 01:33:31;;;;;;;17.62;12.58;;;;;;;16.14;78.73;99942.84;2042240;86;29387;-64
2021/07/29 01:36:34;;;;;;;15.85;11.97;;;;;;;16.12;78.72;99946.66;2061122;86;27854;-64
2021/07/29 01:39:36;;;;;;;13.90;12.23;;;;;;;16.09;78.74;99947.26;2042537;87;29358;-67
2021/07/29 01:42:38;;;;;;;12.55;10.72;;;;;;;16.07;78.75;99949.69;2051201;86;31026;-66
2021/07/29 01:45:40;;;;;;;16.82;10.90;;;;;;;16.05;78.79;99948.98;2105386;84;34327;-66
2021/07/29 01:48:41;;;;;;;14.13;11.48;;;;;;;16.04;78.91;99954.02;2105490;83;30105;-66
2021/07/29 01:51:43;;;;;;;16.87;11.63;;;;;;;16.03;78.99;99953.13;2051716;86;27703;-65
2021/07/29 01:54:45;;;;;;;15.85;10.63;;;;;;;16.01;79.00;99951.04;2051674;86;29852;-65
2021/07/29 01:57:47;;;;;;;11.68;10.48;;;;;;;16.00;79.01;99948.47;2051617;86;32301;-66
2021/07/29 02:00:52;;;;;;;12.07;9.35;;;;;;;15.97;78.92;99944.65;2057334;86;34003;-65
2021/07/29 02:03:53;;;;;;;12.57;11.23;;;;;;;15.96;78.97;99954.61;2069260;86;29354;-65
2021/07/29 02:06:55;;;;;;;12.93;9.33;;;;;;;15.93;79.01;99942.19;2126967;83;27648;-64
2021/07/29 02:09:57;;;;;;;13.75;10.70;;;;;;;15.90;78.94;99939.72;2126540;83;29912;-62
2021/07/29 02:12:59;;;;;;;13.40;10.00;;;;;;;15.89;78.91;99935.29;2126973;83;31038;-65
2021/07/29 02:16:03;;;;;;;18.00;10.23;;;;;;;15.86;78.98;99936.03;2126944;83;33820;-65
2021/07/29 02:19:05;;;;;;;11.95;8.30;;;;;;;15.83;78.98;99937.11;2126476;83;29330;-66
2021/07/29 02:22:07;;;;;;;9.80;8.38;;;;;;;15.80;79.01;99940.04;2127123;83;27700;-66
2021/07/29 02:25:12;;;;;;;12.40;9.25;;;;;;;15.78;78.89;99944.70;2126844;83;29482;-64
2021/07/29 02:28:13;;;;;;;10.58;8.75;;;;;;;15.75;78.96;99948.50;2127315;83;31023;-65
2021/07/29 02:31:15;;;;;;;10.80;8.23;;;;;;;15.73;78.89;99948.23;2126480;83;34166;-65
2021/07/29 02:34:17;;;;;;;10.60;8.53;;;;;;;15.71;78.92;99951.56;2126951;83;30087;-65
2021/07/29 02:37:20;;;;;;;13.53;8.35;;;;;;;15.69;78.97;99953.02;2126804;83;27698;-65
2021/07/29 02:40:22;;;;;;;8.98;7.80;;;;;;;15.67;78.99;99945.52;2126808;83;28804;-67
2021/07/29 02:43:23;;;;;;;10.03;7.97;;;;;;;15.63;79.08;99937.30;2126717;83;32363;-66
2021/07/29 02:46:25;;;;;;;9.00;7.33;;;;;;;15.60;78.98;99941.08;2126556;83;34226;-65
2021/07/29 02:49:27;;;;;;;10.65;7.33;;;;;;;15.59;78.99;99945.27;2127289;83;29785;-66
2021/07/29 02:52:29;;;;;;;10.48;7.95;;;;;;;15.57;79.02;99950.76;2127138;83;27683;-66
2021/07/29 02:55:34;;;;;;;11.90;7.78;;;;;;;15.55;79.09;99956.80;2126398;83;29117;-66
2021/07/29 02:58:38;;;;;;;;;;;;;;;15.52;79.01;99954.32;2129286;83;31040;-66
2021/07/29 03:01:44;;;;;;;9.53;6.90;;;;;;;15.49;78.99;99944.59;2126569;83;33057;-67
2021/07/29 03:04:49;;;;;;;9.95;6.80;;;;;;;15.46;79.07;99942.63;2125517;83;29986;-67
2021/07/29 03:08:02;;;;;;;10.45;7.50;;;;;;;15.46;79.10;99943.98;2126609;83;27811;-67
2021/07/29 03:11:03;;;;;;;8.85;7.75;;;;;;;15.45;79.12;99949.00;2126581;83;28667;-67
2021/07/29 03:14:06;;;;;;;12.73;7.85;;;;;;;15.43;79.25;99948.25;2110737;83;31177;-66
2021/07/29 03:17:08;;;;;;;17.10;7.97;;;;;;;15.44;79.24;99948.63;2104993;84;33027;-65
2021/07/29 03:20:11;;;;;;;9.00;8.10;;;;;;;15.43;79.25;99950.48;2105850;84;30240;-66
2021/07/29 03:23:13;;;;;;;10.65;7.83;;;;;;;15.43;79.20;99953.66;2105741;84;27650;-66
2021/07/29 03:26:15;;;;;;;10.23;7.72;;;;;;;15.43;79.27;99949.13;2105237;84;29567;-66
2021/07/29 03:29:17;;;;;;;14.18;7.95;;;;;;;15.43;79.26;99941.03;2105636;84;32350;-66
2021/07/29 03:32:19;;;;;;;12.33;8.58;;;;;;;15.46;79.29;99945.33;2105342;84;34250;-66
2021/07/29 03:35:21;;;;;;;13.35;8.68;;;;;;;15.48;79.26;99942.02;2105273;84;29991;-67
2021/07/29 03:38:23;;;;;;;10.10;7.40;;;;;;;15.50;79.25;99945.47;2105121;84;28061;-67
2021/07/29 03:41:25;;;;;;;9.73;8.23;;;;;;;15.54;79.29;99954.19;2090309;83;28688;-66
2021/07/29 03:44:44;;;;;;;9.58;7.90;;;;;;;15.58;79.30;99960.58;2012104;88;31099;-67
2021/07/29 03:47:46;;;;;;;8.53;7.62;;;;;;;15.61;79.38;99945.50;2012142;88;33886;-66
2021/07/29 03:50:48;;;;;;;8.33;7.25;;;;;;;15.68;79.39;99951.29;2012739;88;29927;-66
2021/07/29 03:53:50;;;;;;;9.65;7.40;;;;;;;15.73;79.48;99960.38;2012659;88;27659;-66
2021/07/29 03:56:52;;;;;;;11.12;7.35;;;;;;;15.79;79.49;99959.92;2012070;88;28776;-66
2021/07/29 03:59:54;;;;;;;12.03;8.25;;;;;;;15.85;79.49;99958.14;2012475;88;31879;-67
2021/07/29 04:02:56;;;;;;;18.12;9.08;;;;;;;15.93;79.53;99965.14;2011752;88;33787;-66
2021/07/29 04:05:57;;;;;;;9.98;8.93;;;;;;;16.02;79.56;99968.97;2012617;88;30121;-66
2021/07/29 04:08:59;;;;;;;11.05;8.83;;;;;;;16.09;79.51;99966.17;2012619;88;27672;-64
2021/07/29 04:12:01;;;;;;;10.38;8.45;;;;;;;16.17;79.53;99970.98;2012001;88;29722;-66
2021/07/29 04:15:04;;;;;;;11.25;7.97;;;;;;;16.27;79.52;99978.34;2012285;88;31850;-66
2021/07/29 04:18:06;;;;;;;13.53;8.13;;;;;;;16.35;79.54;99982.67;1994251;88;33042;-67
2021/07/29 04:21:15;;;;;;;15.95;8.63;;;;;;;16.41;79.50;99982.17;2000342;89;29313;-67
2021/07/29 04:24:18;;;;;;;8.98;8.03;;;;;;;16.49;79.47;99988.31;1974511;89;27946;-67
2021/07/29 04:27:20;;;;;;;13.60;9.33;;;;;;;16.54;79.40;99973.47;1992304;89;28663;-66
2021/07/29 04:30:21;;;;;;;15.48;9.68;;;;;;;16.62;79.36;99974.20;1974581;89;31039;-67
2021/07/29 04:33:23;;;;;;;15.72;9.58;;;;;;;16.71;79.40;99980.72;1991868;88;33033;-67
2021/07/29 04:36:25;;;;;;;10.65;9.00;;;;;;;16.80;79.42;99975.91;1991906;88;30349;-67
2021/07/29 04:39:27;;;;;;;15.35;10.13;;;;;;;16.90;79.31;99980.55;1992013;88;28203;-67
2021/07/29 04:42:29;;;;;;;15.20;10.38;;;;;;;17.00;79.34;99974.30;2009367;87;28722;-67
2021/07/29 04:45:31;;;;;;;12.85;10.25;;;;;;;17.32;79.41;99990.23;2022183;88;31092;-67
2021/07/29 04:48:33;;;;;;;11.73;10.50;;;;;;;17.32;79.41;99990.23;2010771;88;33609;-67
2021/07/29 04:51:37;;;;;;;17.82;11.33;;;;;;;17.55;79.63;99980.17;2022102;87;29482;-67
2021/07/29 04:54:39;;;;;;;14.63;11.25;;;;;;;18.27;80.80;99991.27;2021835;87;27726;-68
2021/07/29 04:57:41;;;;;;;12.23;10.80;;;;;;;19.40;81.66;99995.33;2022177;88;29673;-68
2021/07/29 05:00:43;;;;;;;10.45;8.08;;;;;;;20.53;81.06;99990.72;2022178;88;31031;-68
2021/07/29 05:03:46;;;;;;;13.18;7.42;;;;;;;21.59;79.25;99990.83;2022229;88;33072;-67
2021/07/29 05:06:48;;;;;;;9.40;7.92;;;;;;;22.54;78.13;99998.42;2022207;88;29376;-68
2021/07/29 05:09:50;;;;;;;9.03;6.20;;;;;;;23.39;76.49;99994.86;2022245;88;27619;-67
2021/07/29 05:12:51;;;;;;;10.78;6.75;;;;;;;24.12;74.45;99989.13;2020844;88;30143;-67
2021/07/29 05:15:53;;;;;;;13.22;6.28;;;;;;;24.78;73.22;99987.30;2022141;88;31063;-65
2021/07/29 05:18:55;;;;;;;9.08;5.60;;;;;;;25.38;71.88;99987.17;2022236;88;33112;-66
2021/07/29 05:21:57;;;;;;;11.73;6.45;;;;;;;25.94;69.87;99977.86;2022253;88;29125;-66
2021/07/29 05:24:59;;;;;;;11.35;5.97;;;;;;;26.43;69.14;99979.81;2022422;88;27640;-66
2021/07/29 05:28:01;;;;;;;10.53;6.15;;;;;;;26.89;67.89;99985.14;2022088;88;28739;-66
2021/07/29 05:31:10;;;;;;;10.00;6.53;;;;;;;27.32;66.71;99983.56;2021636;88;32267;-65
2021/07/29 05:34:12;;;;;;;9.20;6.75;;;;;;;27.64;65.35;99978.64;2022334;88;33041;-66
2021/07/29 05:37:15;;;;;;;10.38;6.65;;;;;;;27.83;64.61;99986.24;2022339;88;30079;-66
2021/07/29 05:40:18;;;;;;;18.65;6.78;;;;;;;28.00;63.20;99985.42;2022038;88;27663;-65
2021/07/29 05:43:21;;;;;;;8.13;6.20;;;;;;;28.16;62.39;99991.22;2022169;85;28680;-65
2021/07/29 05:46:24;;;;;;;12.65;6.92;;;;;;;28.37;61.81;99993.61;2021984;87;31210;-65
2021/07/29 05:49:26;;;;;;;8.40;6.00;;;;;;;28.57;61.38;99985.97;2021927;88;34381;-65
2021/07/29 05:52:29;;;;;;;12.40;7.05;;;;;;;28.78;59.98;99990.06;2021966;88;29379;-67
2021/07/29 05:55:31;;;;;;;10.82;6.60;;;;;;;29.08;59.20;99988.94;2022270;88;27722;-65
2021/07/29 05:58:33;;;;;;;13.48;7.00;;;;;;;29.39;58.66;99984.82;2022477;88;29379;-65
2021/07/29 06:01:35;;;;;;;9.28;6.65;;;;;;;29.74;57.82;99979.67;2022673;88;31405;-66
2021/07/29 06:04:37;;;;;;;10.88;6.65;;;;;;;30.09;57.12;99982.27;2021894;88;34294;-65
2021/07/29 06:07:39;;;;;;;8.58;5.83;;;;;;;30.46;56.24;99980.73;2021918;88;30161;-63
2021/07/29 06:10:41;;;;;;;8.05;5.75;;;;;;;30.84;55.51;99983.36;2022260;88;27770;-64
2021/07/29 06:13:44;;;;;;;7.10;6.10;;;;;;;31.29;53.63;99986.68;2021479;88;44007;-64
2021/07/29 06:16:46;;;;;;;8.33;6.22;;;;;;;31.68;53.23;99986.13;2021872;88;32311;-66
2021/07/29 06:19:48;;;;;;;6.72;5.60;;;;;;;32.02;52.41;99978.97;2021131;88;33860;-66
2021/07/29 06:22:54;;;;;;;15.75;6.10;;;;;;;32.39;51.08;99974.11;2021916;88;30552;-65
2021/07/29 06:25:56;;;;;;;6.30;5.67;;;;;;;32.68;50.53;99971.10;2022488;88;27691;-66
2021/07/29 06:28:59;;;;;;;10.15;6.10;;;;;;;33.00;49.74;99970.99;2021913;88;28763;-66
2021/07/29 06:32:01;;;;;;;7.28;5.40;;;;;;;33.32;48.85;99970.77;2022177;88;31748;-66
2021/07/29 06:35:03;;;;;;;8.60;5.97;;;;;;;33.62;47.98;99977.41;2022550;88;34107;-66
2021/07/29 06:38:05;;;;;;;6.70;5.90;;;;;;;33.95;47.51;99979.39;2022449;88;29342;-66
2021/07/29 06:41:07;;;;;;;12.10;5.85;;;;;;;34.33;46.67;99979.49;2022550;88;27709;-65
2021/07/29 06:44:09;;;;;;;8.68;4.95;;;;;;;34.75;45.49;99978.52;2022109;85;28672;-65
2021/07/29 06:47:15;;;;;;;5.72;4.67;;;;;;;34.82;44.77;99977.29;2022484;88;31117;-65
2021/07/29 06:50:18;;;;;;;5.40;4.90;;;;;;;34.42;43.96;99984.18;2022183;87;33971;-64
2021/07/29 06:53:20;;;;;;;9.15;4.67;;;;;;;33.68;43.21;99988.97;2022421;88;29461;-64
2021/07/29 06:56:22;;;;;;;6.22;4.85;;;;;;;33.54;43.05;99981.92;2022204;88;27721;-64
2021/07/29 06:59:24;;;;;;;5.40;4.92;;;;;;;33.87;43.05;99979.17;2022433;88;29096;-65
2021/07/29 07:02:26;;;;;;;6.35;4.83;;;;;;;34.17;42.62;99979.09;2021931;86;31883;-64
2021/07/29 07:05:28;;;;;;;5.08;4.50;;;;;;;34.53;42.51;99973.02;2050869;86;34379;-64
2021/07/29 07:08:31;;;;;;;8.48;4.62;;;;;;;34.68;41.36;99965.57;2041155;86;30249;-64
2021/07/29 07:11:33;;;;;;;6.58;4.58;;;;;;;34.81;40.34;99964.47;2104970;84;27812;-65
2021/07/29 07:14:35;;;;;;;5.00;4.33;;;;;;;34.92;39.61;99960.48;2105439;84;28492;-64
2021/07/29 07:17:36;;;;;;;5.20;4.42;;;;;;;35.07;39.44;99965.02;2105146;84;31883;-65
2021/07/29 07:20:38;;;;;;;4.55;4.15;;;;;;;35.25;39.32;99960.34;2040951;86;33449;-65
2021/07/29 07:23:41;;;;;;;6.70;4.05;;;;;;;35.54;39.50;99956.17;2078168;84;29744;-65
2021/07/29 07:26:43;;;;;;;5.28;4.35;;;;;;;35.84;38.76;99957.27;2052018;86;27750;-64
2021/07/29 07:29:45;;;;;;;5.40;3.83;;;;;;;36.03;38.07;99960.66;2051481;86;29771;-65
2021/07/29 07:32:47;;;;;;;4.15;3.83;;;;;;;36.06;37.27;99955.15;2051296;86;31903;-65
2021/07/29 07:35:50;;;;;;;4.22;3.83;;;;;;;36.18;36.70;99944.73;2105365;84;33619;-65
2021/07/29 07:38:53;;;;;;;5.00;4.12;;;;;;;36.35;36.13;99944.69;2104502;84;30125;-65
2021/07/29 07:41:56;;;;;;;4.60;4.17;;;;;;;36.41;36.17;99932.22;2105680;84;27657;-65
2021/07/29 07:44:58;;;;;;;5.53;4.15;;;;;;;36.52;35.90;99935.46;2100285;84;28520;-65
2021/07/29 07:48:00;;;;;;;4.45;3.55;;;;;;;36.56;34.83;99939.44;2099524;84;32329;-65
2021/07/29 07:51:03;;;;;;;4.97;3.75;;;;;;;36.48;34.70;99932.36;2099897;84;34358;-65
2021/07/29 07:54:07;;;;;;;4.33;3.92;;;;;;;36.54;34.64;99929.08;2064535;86;29380;-65
2021/07/29 07:57:09;;;;;;;5.90;4.40;;;;;;;36.69;34.59;99931.77;2064845;86;27962;-64
2021/07/29 08:00:12;;;;;;;9.15;4.55;;;;;;;36.72;34.29;99934.91;2064422;86;29923;-64
2021/07/29 08:03:14;;;;;;;3.87;3.62;;;;;;;36.82;34.09;99923.56;2064680;86;31874;-65
2021/07/29 08:06:16;;;;;;;6.62;4.50;;;;;;;36.99;34.72;99930.48;2064423;86;32934;-66
2021/07/29 08:09:19;;;;;;;5.00;4.50;;;;;;;37.00;33.48;99931.64;2064319;86;30502;-65
2021/07/29 08:12:21;;;;;;;6.08;4.30;;;;;;;36.80;33.33;99927.46;2064743;86;27654;-65
2021/07/29 08:15:24;;;;;;;6.92;4.72;;;;;;;36.79;33.22;99929.12;2064904;85;28676;-65
2021/07/29 08:18:27;;;;;;;4.87;4.20;;;;;;;36.88;33.06;99924.76;2064215;86;32322;-65
2021/07/29 08:21:30;;;;;;;5.30;4.58;;;;;;;36.94;32.80;99919.57;2063630;85;33880;-65
2021/07/29 08:24:33;;;;;;;4.80;4.30;;;;;;;36.78;32.64;99919.06;2064629;86;30503;-65
2021/07/29 08:27:35;;;;;;;;;;;;;;;36.85;33.03;99916.91;2067064;86;27702;-65
2021/07/29 08:30:38;;;;;;;5.95;4.33;;;;;;;36.92;32.03;99918.09;2064006;86;29077;-65
2021/07/29 08:33:42;;;;;;;4.83;4.03;;;;;;;36.80;31.98;99910.71;2062735;86;31088;-66
2021/07/29 08:36:44;;;;;;;6.85;3.70;;;;;;;36.75;32.24;99906.45;2064346;86;32979;-64
2021/07/29 08:39:46;;;;;;;7.28;4.55;;;;;;;36.25;31.77;99917.19;2063878;85;30585;-64
2021/07/29 08:42:51;;;;;;;7.37;4.10;;;;;;;35.71;32.13;99913.01;2050038;86;27719;-64
2021/07/29 08:45:53;;;;;;;5.58;3.95;;;;;;;35.65;32.12;99908.44;2061163;86;28704;-64
2021/07/29 08:48:55;;;;;;;4.15;3.77;;;;;;;35.60;31.55;99913.38;2057929;86;32267;-64
2021/07/29 08:51:57;;;;;;;6.08;4.03;;;;;;;35.22;32.31;99910.70;2057571;86;33617;-64
2021/07/29 08:55:00;;;;;;;6.35;4.62;;;;;;;34.79;32.60;99911.52;2057998;86;30167;-64
2021/07/29 08:58:02;;;;;;;4.67;4.08;;;;;;;34.58;32.67;99914.42;2058187;86;27700;-63
2021/07/29 09:01:11;;;;;;;4.87;4.45;;;;;;;34.65;32.75;99912.36;2057933;86;28528;-64
2021/07/29 09:04:15;;;;;;;4.72;4.33;;;;;;;34.46;32.31;99916.69;2057279;86;32309;-65
2021/07/29 09:07:17;;;;;;;4.80;4.37;;;;;;;34.28;33.36;99913.45;2057824;86;33573;-65
2021/07/29 09:10:25;;;;;;;5.65;4.90;;;;;;;34.41;33.47;99912.92;2057622;86;30527;-64
2021/07/29 09:13:27;;;;;;;7.17;4.90;;;;;;;34.32;32.94;99907.72;2058111;85;27656;-65
2021/07/29 09:16:33;;;;;;;5.10;4.60;;;;;;;34.21;32.73;99910.80;2057320;86;28723;-64
2021/07/29 09:19:42;;;;;;;5.80;5.25;;;;;;;33.72;33.11;99907.38;2057548;86;31090;-65
2021/07/29 09:22:47;;;;;;;5.15;4.37;;;;;;;33.43;33.84;99906.64;2030514;86;33029;-65
2021/07/29 09:26:01;;;;;;;;;;;;;;;33.41;34.48;99905.20;2059698;86;29292;-65
2021/07/29 09:29:03;;;;;;;5.45;4.80;;;;;;;33.13;34.25;99899.72;2061157;86;27683;-64
2021/07/29 09:32:09;;;;;;;8.48;4.87;;;;;;;32.94;34.83;99895.59;2058045;86;28100;-64
2021/07/29 09:35:11;;;;;;;6.75;4.58;;;;;;;32.75;34.76;99896.67;2058142;86;31028;-64
2021/07/29 09:38:31;;;;;;;5.58;5.08;;;;;;;32.45;34.98;99890.53;2057739;86;34200;-64
2021/07/29 09:41:34;;;;;;;6.92;5.08;;;;;;;32.15;35.43;99896.25;2057942;86;29721;-64
2021/07/29 09:44:42;;;;;;;5.53;5.00;;;;;;;31.63;35.36;99892.34;2041043;86;27694;-64
2021/07/29 09:47:45;;;;;;;8.75;5.00;;;;;;;31.16;35.71;99894.05;2017662;88;28725;-64
2021/07/29 09:50:47;;;;;;;8.53;5.65;;;;;;;30.69;36.46;99893.73;2017519;87;31908;-64
2021/07/29 09:53:50;;;;;;;6.05;5.55;;;;;;;30.30;36.83;99895.52;2017775;88;33103;-64
2021/07/29 09:56:52;;;;;;;6.60;5.42;;;;;;;29.99;37.21;99898.45;2017913;88;29409;-64
2021/07/29 09:59:55;;;;;;;6.35;5.30;;;;;;;29.69;37.83;99900.24;2017847;88;27692;-64
2021/07/29 10:02:57;;;;;;;5.90;5.30;;;;;;;29.44;38.27;99898.12;1991697;88;29978;-64
2021/07/29 10:06:10;;;;;;;6.95;6.08;;;;;;;29.19;39.31;99897.84;2018013;88;32396;-63
2021/07/29 10:09:13;;;;;;;10.25;6.00;;;;;;;29.03;39.60;99892.16;2017744;88;32987;-64
2021/07/29 10:12:21;;;;;;;7.83;5.47;;;;;;;29.07;40.50;99895.66;2018074;88;30259;-64
2021/07/29 10:15:45;;;;;;;5.83;5.25;;;;;;;29.31;40.87;99890.64;2017778;88;27676;-63
2021/07/29 10:19:01;;;;;;;6.92;4.67;;;;;;;29.38;40.19;99884.61;2017621;87;30251;-65
2021/07/29 10:22:22;;;;;;;6.40;4.20;;;;;;;29.30;39.71;99887.55;2057609;85;32319;-65
2021/07/29 10:25:24;;;;;;;10.32;4.67;;;;;;;29.27;40.17;99881.06;2058255;86;33344;-64
2021/07/29 10:28:28;;;;;;;7.12;4.78;;;;;;;29.30;39.44;99887.55;2058163;86;29714;-65
2021/07/29 10:31:34;;;;;;;;;;;;;;;29.29;39.55;99891.37;2060739;86;27630;-64
2021/07/29 10:34:36;;;;;;;4.25;3.85;;;;;;;29.33;39.44;99897.31;2056943;86;29285;-65
2021/07/29 10:37:43;;;;;;;5.33;4.83;;;;;;;29.31;38.96;99893.91;2057882;86;31936;-64
2021/07/29 10:40:45;;;;;;;4.62;4.15;;;;;;;29.21;38.68;99894.31;2058042;86;34288;-65
2021/07/29 10:43:47;;;;;;;3.70;3.30;;;;;;;29.18;38.73;99895.59;2047567;86;30506;-64
2021/07/29 10:47:01;;;;;;;5.97;3.72;;;;;;;29.23;39.05;99898.58;2026590;87;27663;-65
2021/07/29 10:50:06;;;;;;;4.05;3.72;;;;;;;29.34;39.29;99896.25;2038735;87;29595;-65
2021/07/29 10:53:08;;;;;;;4.00;3.60;;;;;;;29.43;39.39;99897.80;2027893;87;31837;-65
2021/07/29 10:56:12;;;;;;;4.05;3.70;;;;;;;29.47;38.71;99895.46;2025692;87;34146;-66
2021/07/29 10:59:18;;;;;;;6.50;4.10;;;;;;;29.52;38.84;99888.24;2026305;87;30129;-65
2021/07/29 11:02:45;;;;;;;4.20;3.55;;;;;;;29.69;38.54;99891.45;2026373;87;27676;-65
2021/07/29 11:05:52;;;;;;;5.92;4.05;;;;;;;29.69;38.01;99891.45;2025019;87;28698;-65
2021/07/29 11:08:50;;;;;;;9.45;4.35;;;;;;;29.72;38.28;99883.26;2037076;87;32413;-65
2021/07/29 11:11:52;;;;;;;6.70;3.80;;;;;;;29.68;38.46;99885.61;2028280;87;33000;-64
2021/07/29 11:14:58;;;;;;;4.50;3.58;;;;;;;29.57;37.76;99887.59;2026060;87;29552;-65
2021/07/29 11:18:13;;;;;;;4.78;3.95;;;;;;;29.48;37.17;99890.27;2025941;87;27683;-65
2021/07/29 11:21:18;;;;;;;5.65;4.25;;;;;;;29.46;37.78;99886.86;2026021;87;29316;-64
2021/07/29 11:24:24;;;;;;;6.97;3.70;;;;;;;29.55;37.36;99882.30;2025509;87;31947;-64
2021/07/29 11:27:33;;;;;;;5.78;4.20;;;;;;;29.57;37.61;99882.08;2025994;87;33664;-63
2021/07/29 11:30:43;;;;;;;4.47;4.08;;;;;;;29.52;37.41;99881.34;1991654;88;29183;-63
2021/07/29 11:33:49;;;;;;;4.80;4.20;;;;;;;29.49;37.53;99879.00;2012846;88;27894;-64
2021/07/29 11:36:53;;;;;;;6.92;3.58;;;;;;;29.52;37.43;99882.72;2014229;88;28642;-63
2021/07/29 11:39:55;;;;;;;5.65;4.10;;;;;;;29.53;37.44;99876.69;2014611;88;31061;-64
2021/07/29 11:42:57;;;;;;;6.35;3.90;;;;;;;29.61;37.27;99887.50;2014362;88;33755;-64
2021/07/29 11:46:11;;;;;;;5.55;4.33;;;;;;;29.65;36.97;99889.30;2020903;87;30517;-64
2021/07/29 11:49:13;;;;;;;4.30;3.90;;;;;;;29.54;36.54;99884.74;2020621;88;27831;-65
2021/07/29 11:52:16;;;;;;;5.62;4.62;;;;;;;29.58;36.65;99877.42;2022279;88;28810;-64
2021/07/29 11:55:20;;;;;;;7.87;3.95;;;;;;;29.65;36.38;99886.02;2022397;88;31180;-65
2021/07/29 11:58:25;;;;;;;5.12;4.62;;;;;;;29.70;36.52;99882.07;2022474;88;33931;-65
2021/07/29 12:01:27;;;;;;;;;;;;;;;29.66;35.50;99879.95;2019888;88;29498;-65
2021/07/29 12:04:32;;;;;;;5.40;4.20;;;;;;;29.53;35.46;99873.92;1992966;89;27724;-65
2021/07/29 12:07:35;;;;;;;4.47;4.08;;;;;;;29.44;35.45;99869.66;2012655;88;28693;-66
2021/07/29 12:10:37;;;;;;;8.05;4.75;;;;;;;29.36;35.93;99876.23;2012832;88;31014;-65
2021/07/29 12:13:44;;;;;;;4.45;3.27;;;;;;;29.30;35.40;99871.51;2012496;88;32371;-65
2021/07/29 12:16:49;;;;;;;6.67;3.60;;;;;;;29.15;34.25;99864.28;1994830;89;29366;-65
2021/07/29 12:20:05;;;;;;;5.60;3.85;;;;;;;29.05;35.19;99860.54;2012542;88;27675;-65
2021/07/29 12:23:12;;;;;;;4.10;3.42;;;;;;;28.93;34.61;99862.22;1987104;88;28759;-64
2021/07/29 12:26:15;;;;;;;5.15;3.98;;;;;;;28.84;34.70;99856.59;1992792;89;31042;-64
2021/07/29 12:29:42;;;;;;;5.17;4.42;;;;;;;28.80;34.48;99856.99;1992813;88;33751;-64
2021/07/29 12:32:45;;;;;;;6.65;4.00;;;;;;;28.75;34.38;99852.62;1992432;88;30660;-64
2021/07/29 12:36:04;;;;;;;5.83;3.75;;;;;;;28.64;34.85;99852.65;1992483;88;27705;-64
2021/07/29 12:39:06;;;;;;;4.33;3.55;;;;;;;28.58;34.51;99853.49;1992732;88;29639;-64
2021/07/29 12:42:26;;;;;;;3.80;3.35;;;;;;;28.52;34.76;99854.30;1992432;88;31570;-64
2021/07/29 12:45:48;;;;;;;4.20;3.47;;;;;;;28.45;34.63;99856.20;2008042;87;34190;-65
2021/07/29 12:48:57;;;;;;;4.12;3.50;;;;;;;28.31;34.02;99856.11;2021338;87;30569;-64
2021/07/29 12:51:59;;;;;;;4.42;3.60;;;;;;;28.18;33.86;99849.16;2022485;88;27744;-64
2021/07/29 12:55:11;;;;;;;5.28;3.62;;;;;;;28.10;34.61;99843.28;2010976;88;29916;-64
2021/07/29 12:58:14;;;;;;;5.40;3.33;;;;;;;28.04;34.50;99846.30;2022394;87;31689;-64
2021/07/29 13:01:17;;;;;;;7.67;3.85;;;;;;;27.98;34.82;99843.50;2021748;87;33753;-65
2021/07/29 13:04:25;;;;;;;5.42;3.58;;;;;;;27.93;34.81;99837.74;2022210;88;30028;-64
2021/07/29 13:07:27;;;;;;;4.20;3.90;;;;;;;27.92;34.75;99831.91;2022361;88;27704;-64
2021/07/29 13:10:29;;;;;;;4.60;3.20;;;;;;;27.87;34.08;99832.52;2022143;88;29723;-64
2021/07/29 13:13:33;;;;;;;7.85;3.02;;;;;;;27.87;34.51;99836.14;2022254;87;31036;-64
2021/07/29 13:16:35;;;;;;;7.37;3.25;;;;;;;27.87;34.68;99822.89;2022055;88;33904;-64
2021/07/29 13:19:38;;;;;;;4.65;3.40;;;;;;;27.84;33.96;99821.40;2022487;88;29566;-64
2021/07/29 13:22:40;;;;;;;4.03;3.15;;;;;;;27.86;33.96;99821.19;2022373;88;27733;-64
2021/07/29 13:25:45;;;;;;;6.28;3.25;;;;;;;27.93;33.88;99817.95;2021296;88;28739;-64
2021/07/29 13:28:47;;;;;;;4.35;3.10;;;;;;;28.05;34.10;99819.59;2022091;87;31055;-63
2021/07/29 13:31:51;;;;;;;3.15;2.87;;;;;;;28.14;33.97;99832.70;2022552;88;33020;-63
2021/07/29 13:34:53;;;;;;;4.65;3.22;;;;;;;28.13;34.04;99834.63;2022627;88;30489;-63
2021/07/29 13:37:56;;;;;;;3.87;3.40;;;;;;;28.09;34.31;99823.66;2022462;87;27665;-64
2021/07/29 13:40:58;;;;;;;3.63;3.30;;;;;;;27.97;34.03;99827.49;2022854;88;28968;-63
2021/07/29 13:44:07;;;;;;;7.62;3.45;;;;;;;27.78;33.97;99824.11;2022505;87;31989;-63
2021/07/29 13:47:07;;;;;;;3.87;3.45;;;;;;;27.67;34.16;99826.88;2022071;87;32975;-63
2021/07/29 13:50:10;;;;;;;7.30;3.07;;;;;;;27.62;34.15;99823.36;2004522;87;29980;-64
2021/07/29 13:53:12;;;;;;;8.93;3.70;;;;;;;27.57;34.50;99816.23;2021766;88;27759;-64
2021/07/29 13:56:15;;;;;;;5.22;3.37;;;;;;;27.54;34.63;99812.49;2051807;86;29078;-64
2021/07/29 13:59:17;;;;;;;6.90;2.90;;;;;;;27.53;34.89;99817.16;2051962;86;31110;-74
2021/07/29 14:02:19;;;;;;;6.55;3.72;;;;;;;27.50;35.17;99813.42;2105117;84;34170;-72
2021/07/29 14:05:21;;;;;;;4.97;3.75;;;;;;;27.49;34.89;99814.98;2052134;86;29343;-61
2021/07/29 14:08:23;;;;;;;3.98;3.45;;;;;;;27.52;35.38;99809.95;2052041;86;27695;-62
2021/07/29 14:11:25;;;;;;;5.35;3.62;;;;;;;27.51;35.40;99804.13;2051911;86;29869;-62
2021/07/29 14:14:29;;;;;;;3.67;2.87;;;;;;;27.53;35.67;99812.16;2105291;84;32426;-61
2021/07/29 14:21:05;;;;;;;5.33;4.50;;;;;;;27.40;35.53;99799.98;2105478;84;29341;-68
2021/07/29 14:24:04;;;;;;;5.72;3.65;;;;;;;27.41;35.56;99796.18;2051428;85;27704;-62